sensor_id;sensor_type;location;lat;lon;timestamp;pressure;altitude;pressure_sealevel;temperature;humidity
14902;BME280;7542;49.078;9.194;2023-04-23T00:00:15;97949.81;;;29.52;35.89
14902;BME280;7542;49.078;9.194;2023-04-23T00:01:18;97947.91;;;29.52;35.36
14902;BME280;7542;49.078;9.194;2023-04-23T00:02:21;97943.94;;;29.50;35.58
14902;BME280;7542;49.078;9.194;2023-04-23T00:03:24;97950.91;;;29.51;35.68
14902;BME280;7542;49.078;9.194;2023-04-23T00:04:30;97942.50;;;29.52;35.33
14902;BME280;7542;49.078;9.194;2023-04-23T00:05:38;97940.91;;;29.51;35.45
14902;BME280;7542;49.078;9.194;2023-04-23T00:06:42;97944.41;;;29.52;35.39
14902;BME280;7542;49.078;9.194;2023-04-23T00:07:44;97942.03;;;29.50;35.57
14902;BME280;7542;49.078;9.194;2023-04-23T00:08:47;97945.53;;;29.51;35.76
14902;BME280;7542;49.078;9.194;2023-04-23T00:09:55;97949.53;;;29.53;35.81
14902;BME280;7542;49.078;9.194;2023-04-23T00:10:58;97943.94;;;29.50;35.29
14902;BME280;7542;49.078;9.194;2023-04-23T00:12:01;97940.44;;;29.49;35.71
14902;BME280;7542;49.078;9.194;2023-04-23T00:13:03;97948.53;;;29.49;35.31
14902;BME280;7542;49.078;9.194;2023-04-23T00:14:05;97950.44;;;29.49;35.71
14902;BME280;7542;49.078;9.194;2023-04-23T00:15:08;97947.75;;;29.49;35.32
14902;BME280;7542;49.078;9.194;2023-04-23T00:16:11;97949.66;;;29.48;35.64
14902;BME280;7542;49.078;9.194;2023-04-23T00:17:13;97947.44;;;29.50;35.31
14902;BME280;7542;49.078;9.194;2023-04-23T00:18:15;97954.72;;;29.50;35.19
14902;BME280;7542;49.078;9.194;2023-04-23T00:19:18;97951.53;;;29.48;35.66
14902;BME280;7542;49.078;9.194;2023-04-23T00:20:20;97950.72;;;29.47;35.20
14902;BME280;7542;49.078;9.194;2023-04-23T00:21:22;97946.44;;;29.46;35.05
14902;BME280;7542;49.078;9.194;2023-04-23T00:22:24;97951.66;;;29.42;34.61
14902;BME280;7542;49.078;9.194;2023-04-23T00:23:27;97951.44;;;29.39;34.54
14902;BME280;7542;49.078;9.194;2023-04-23T00:24:29;97940.09;;;29.28;34.27
14902;BME280;7542;49.078;9.194;2023-04-23T00:25:32;97948.97;;;29.20;33.98
14902;BME280;7542;49.078;9.194;2023-04-23T00:26:34;97956.50;;;29.09;34.00
14902;BME280;7542;49.078;9.194;2023-04-23T00:27:36;97952.31;;;29.03;34.56
14902;BME280;7542;49.078;9.194;2023-04-23T00:28:38;97957.84;;;28.98;34.36
14902;BME280;7542;49.078;9.194;2023-04-23T00:29:40;97960.03;;;28.96;34.83
14902;BME280;7542;49.078;9.194;2023-04-23T00:30:42;97959.53;;;28.94;34.54
14902;BME280;7542;49.078;9.194;2023-04-23T00:31:43;97962.84;;;28.91;34.75
14902;BME280;7542;49.078;9.194;2023-04-23T00:32:46;97964.75;;;28.91;35.03
14902;BME280;7542;49.078;9.194;2023-04-23T00:33:48;97962.84;;;28.91;35.20
14902;BME280;7542;49.078;9.194;2023-04-23T00:34:50;97963.97;;;28.90;35.22
14902;BME280;7542;49.078;9.194;2023-04-23T00:35:52;97963.97;;;28.90;35.57
14902;BME280;7542;49.078;9.194;2023-04-23T00:36:54;97969.84;;;28.92;35.40
14902;BME280;7542;49.078;9.194;2023-04-23T00:37:56;97971.75;;;28.92;35.36
14902;BME280;7542;49.078;9.194;2023-04-23T00:38:58;97969.84;;;28.92;35.61
14902;BME280;7542;49.078;9.194;2023-04-23T00:40:00;97965.25;;;28.93;35.58
14902;BME280;7542;49.078;9.194;2023-04-23T00:41:03;97970.63;;;28.93;35.49
14902;BME280;7542;49.078;9.194;2023-04-23T00:42:06;97968.44;;;28.95;35.30
14902;BME280;7542;49.078;9.194;2023-04-23T00:43:12;97968.91;;;28.97;35.64
14902;BME280;7542;49.078;9.194;2023-04-23T00:44:16;97976.22;;;28.96;35.44
14902;BME280;7542;49.078;9.194;2023-04-23T00:45:19;97965.41;;;28.96;35.35
14902;BME280;7542;49.078;9.194;2023-04-23T00:46:21;97967.31;;;28.96;35.59
14902;BME280;7542;49.078;9.194;2023-04-23T00:47:23;97972.41;;;28.97;35.62
14902;BME280;7542;49.078;9.194;2023-04-23T00:48:26;97972.63;;;29.01;35.47
14902;BME280;7542;49.078;9.194;2023-04-23T00:49:30;97972.94;;;28.99;35.59
14902;BME280;7542;49.078;9.194;2023-04-23T00:50:32;97974.53;;;29.00;35.21
14902;BME280;7542;49.078;9.194;2023-04-23T00:51:34;97976.13;;;29.01;35.54
14902;BME280;7542;49.078;9.194;2023-04-23T00:52:36;97975.00;;;29.02;35.45
14902;BME280;7542;49.078;9.194;2023-04-23T00:53:39;97973.91;;;29.03;35.06
14902;BME280;7542;49.078;9.194;2023-04-23T00:54:41;97979.31;;;29.03;35.51
14902;BME280;7542;49.078;9.194;2023-04-23T00:55:44;97972.81;;;29.04;35.17
14902;BME280;7542;49.078;9.194;2023-04-23T00:56:46;97974.41;;;29.05;35.42
14902;BME280;7542;49.078;9.194;2023-04-23T00:57:49;97972.19;;;29.07;35.19
14902;BME280;7542;49.078;9.194;2023-04-23T00:58:51;97980.28;;;29.07;35.19
14902;BME280;7542;49.078;9.194;2023-04-23T00:59:54;97979.97;;;29.09;35.17
14902;BME280;7542;49.078;9.194;2023-04-23T01:00:59;97968.38;;;29.08;35.16
14902;BME280;7542;49.078;9.194;2023-04-23T01:02:03;97975.69;;;29.08;35.39
14902;BME280;7542;49.078;9.194;2023-04-23T01:03:06;97977.00;;;29.10;34.83
14902;BME280;7542;49.078;9.194;2023-04-23T01:04:08;97986.19;;;29.09;35.20
14902;BME280;7542;49.078;9.194;2023-04-23T01:05:10;97981.59;;;29.10;35.30
14902;BME280;7542;49.078;9.194;2023-04-23T01:06:14;97980.19;;;29.12;35.26
14902;BME280;7542;49.078;9.194;2023-04-23T01:07:16;97980.97;;;29.13;35.14
14902;BME280;7542;49.078;9.194;2023-04-23T01:08:20;97987.19;;;29.13;35.04
14902;BME280;7542;49.078;9.194;2023-04-23T01:09:24;97988.78;;;29.14;35.03
14902;BME280;7542;49.078;9.194;2023-04-23T01:10:28;97984.47;;;29.13;35.09
14902;BME280;7542;49.078;9.194;2023-04-23T01:11:33;97984.66;;;29.17;34.89
14902;BME280;7542;49.078;9.194;2023-04-23T01:12:35;97984.47;;;29.13;34.77
14902;BME280;7542;49.078;9.194;2023-04-23T01:13:37;97992.25;;;29.15;34.76
14902;BME280;7542;49.078;9.194;2023-04-23T01:14:40;97996.06;;;29.14;34.78
14902;BME280;7542;49.078;9.194;2023-04-23T01:15:44;97989.56;;;29.15;34.79
14902;BME280;7542;49.078;9.194;2023-04-23T01:16:46;97997.34;;;29.16;34.62
14902;BME280;7542;49.078;9.194;2023-04-23T01:17:48;98001.97;;;29.16;35.13
14902;BME280;7542;49.078;9.194;2023-04-23T01:18:50;97997.34;;;29.16;34.75
14902;BME280;7542;49.078;9.194;2023-04-23T01:19:52;98000.38;;;29.15;35.12
14902;BME280;7542;49.078;9.194;2023-04-23T01:20:54;98001.97;;;29.16;34.74
14902;BME280;7542;49.078;9.194;2023-04-23T01:21:56;98001.66;;;29.17;35.03
14902;BME280;7542;49.078;9.194;2023-04-23T01:23:02;98009.44;;;29.19;35.03
14902;BME280;7542;49.078;9.194;2023-04-23T01:24:05;98001.66;;;29.17;34.93
14902;BME280;7542;49.078;9.194;2023-04-23T01:25:08;98009.75;;;29.17;34.48
14902;BME280;7542;49.078;9.194;2023-04-23T01:26:10;98002.13;;;29.20;34.49
14902;BME280;7542;49.078;9.194;2023-04-23T01:27:12;98007.06;;;29.17;34.59
14902;BME280;7542;49.078;9.194;2023-04-23T01:28:14;98006.25;;;29.17;34.84
14902;BME280;7542;49.078;9.194;2023-04-23T01:29:17;98011.34;;;29.19;34.64
14902;BME280;7542;49.078;9.194;2023-04-23T01:30:19;98011.34;;;29.19;34.60
14902;BME280;7542;49.078;9.194;2023-04-23T01:31:23;98001.66;;;29.17;34.74
14902;BME280;7542;49.078;9.194;2023-04-23T01:32:25;98008.66;;;29.19;34.92
14902;BME280;7542;49.078;9.194;2023-04-23T01:33:29;98012.13;;;29.19;34.71
14902;BME280;7542;49.078;9.194;2023-04-23T01:34:33;98006.75;;;29.19;34.93
14902;BME280;7542;49.078;9.194;2023-04-23T01:35:36;98007.53;;;29.20;34.86
14902;BME280;7542;49.078;9.194;2023-04-23T01:36:39;98006.25;;;29.17;34.93
14902;BME280;7542;49.078;9.194;2023-04-23T01:37:43;98004.03;;;29.19;34.39
14902;BME280;7542;49.078;9.194;2023-04-23T01:38:45;97998.94;;;29.17;34.85
14902;BME280;7542;49.078;9.194;2023-04-23T01:39:47;97997.84;;;29.19;34.55
14902;BME280;7542;49.078;9.194;2023-04-23T01:40:49;98010.53;;;29.18;34.48
14902;BME280;7542;49.078;9.194;2023-04-23T01:41:52;98005.16;;;29.18;34.73
14902;BME280;7542;49.078;9.194;2023-04-23T01:42:55;98006.75;;;29.19;34.72
14902;BME280;7542;49.078;9.194;2023-04-23T01:43:58;98001.34;;;29.19;34.86
14902;BME280;7542;49.078;9.194;2023-04-23T01:45:02;97999.75;;;29.18;34.78
14902;BME280;7542;49.078;9.194;2023-04-23T01:46:04;98006.47;;;29.21;34.80
14902;BME280;7542;49.078;9.194;2023-04-23T01:47:06;98001.34;;;29.19;34.38
14902;BME280;7542;49.078;9.194;2023-04-23T01:48:09;98002.75;;;29.16;34.40
14902;BME280;7542;49.078;9.194;2023-04-23T01:49:11;98001.66;;;29.17;34.74
14902;BME280;7542;49.078;9.194;2023-04-23T01:50:13;98003.84;;;29.15;34.56
14902;BME280;7542;49.078;9.194;2023-04-23T01:51:15;98007.34;;;29.16;34.28
14902;BME280;7542;49.078;9.194;2023-04-23T01:52:17;98011.16;;;29.15;34.48
14902;BME280;7542;49.078;9.194;2023-04-23T01:53:19;98009.25;;;29.15;34.58
14902;BME280;7542;49.078;9.194;2023-04-23T01:54:21;98006.56;;;29.15;34.25
14902;BME280;7542;49.078;9.194;2023-04-23T01:55:23;98009.25;;;29.15;34.45
14902;BME280;7542;49.078;9.194;2023-04-23T01:56:27;98008.16;;;29.16;34.46
14902;BME280;7542;49.078;9.194;2023-04-23T01:57:29;98015.47;;;29.16;34.37
14902;BME280;7542;49.078;9.194;2023-04-23T01:58:31;98012.75;;;29.16;34.61
14902;BME280;7542;49.078;9.194;2023-04-23T01:59:33;98013.88;;;29.15;34.66
14902;BME280;7542;49.078;9.194;2023-04-23T02:00:35;98016.56;;;29.15;34.65
14902;BME280;7542;49.078;9.194;2023-04-23T02:01:45;98020.75;;;29.21;34.64
14902;BME280;7542;49.078;9.194;2023-04-23T02:02:47;98010.06;;;29.16;34.66
14902;BME280;7542;49.078;9.194;2023-04-23T02:03:49;98021.16;;;29.14;34.74
14902;BME280;7542;49.078;9.194;2023-04-23T02:04:52;98013.38;;;29.13;34.27
14902;BME280;7542;49.078;9.194;2023-04-23T02:05:55;98021.97;;;29.15;34.72
14902;BME280;7542;49.078;9.194;2023-04-23T02:06:57;98022.75;;;29.15;34.16
14902;BME280;7542;49.078;9.194;2023-04-23T02:07:59;98021.78;;;29.11;34.22
14902;BME280;7542;49.078;9.194;2023-04-23T02:09:01;98019.56;;;29.13;34.39
14902;BME280;7542;49.078;9.194;2023-04-23T02:10:03;98019.56;;;29.13;34.40
14902;BME280;7542;49.078;9.194;2023-04-23T02:11:06;98019.56;;;29.13;34.35
14902;BME280;7542;49.078;9.194;2023-04-23T02:12:07;98024.19;;;29.13;34.64
14902;BME280;7542;49.078;9.194;2023-04-23T02:13:09;98020.69;;;29.12;34.29
14902;BME280;7542;49.078;9.194;2023-04-23T02:14:11;98023.38;;;29.12;34.33
14902;BME280;7542;49.078;9.194;2023-04-23T02:15:14;98019.88;;;29.12;34.40
14902;BME280;7542;49.078;9.194;2023-04-23T02:16:17;98018.28;;;29.11;34.60
14902;BME280;7542;49.078;9.194;2023-04-23T02:17:21;98027.19;;;29.11;34.14
14902;BME280;7542;49.078;9.194;2023-04-23T02:18:23;98021.78;;;29.11;34.24
14902;BME280;7542;49.078;9.194;2023-04-23T02:19:25;98023.69;;;29.11;34.34
14902;BME280;7542;49.078;9.194;2023-04-23T02:20:28;98021.78;;;29.11;34.11
14902;BME280;7542;49.078;9.194;2023-04-23T02:21:30;98024.78;;;29.10;34.42
14902;BME280;7542;49.078;9.194;2023-04-23T02:22:32;98031.00;;;29.10;34.37
14902;BME280;7542;49.078;9.194;2023-04-23T02:23:34;98024.78;;;29.10;34.33
14902;BME280;7542;49.078;9.194;2023-04-23T02:24:36;98026.19;;;29.07;34.12
14902;BME280;7542;49.078;9.194;2023-04-23T02:25:40;98022.09;;;29.10;34.23
14902;BME280;7542;49.078;9.194;2023-04-23T02:26:43;98026.69;;;29.09;34.32
14902;BME280;7542;49.078;9.194;2023-04-23T02:27:44;98022.69;;;29.07;34.18
14902;BME280;7542;49.078;9.194;2023-04-23T02:28:46;98026.19;;;29.07;34.31
14902;BME280;7542;49.078;9.194;2023-04-23T02:29:48;98028.06;;;29.07;34.13
14902;BME280;7542;49.078;9.194;2023-04-23T02:30:50;98022.69;;;29.07;34.10
14902;BME280;7542;49.078;9.194;2023-04-23T02:31:52;98028.88;;;29.07;34.26
14902;BME280;7542;49.078;9.194;2023-04-23T02:32:54;98024.59;;;29.06;34.13
14902;BME280;7542;49.078;9.194;2023-04-23T02:33:56;98024.28;;;29.08;34.27
14902;BME280;7542;49.078;9.194;2023-04-23T02:34:58;98019.19;;;29.06;34.40
14902;BME280;7542;49.078;9.194;2023-04-23T02:36:02;98018.38;;;29.06;34.62
14902;BME280;7542;49.078;9.194;2023-04-23T02:37:04;98021.88;;;29.06;34.46
14902;BME280;7542;49.078;9.194;2023-04-23T02:38:06;98016.78;;;29.05;34.48
14902;BME280;7542;49.078;9.194;2023-04-23T02:39:08;98018.38;;;29.06;34.27
14902;BME280;7542;49.078;9.194;2023-04-23T02:40:10;98022.50;;;29.03;34.08
14902;BME280;7542;49.078;9.194;2023-04-23T02:41:12;98025.19;;;29.03;34.20
14902;BME280;7542;49.078;9.194;2023-04-23T02:42:14;98026.78;;;29.04;34.37
14902;BME280;7542;49.078;9.194;2023-04-23T02:43:16;98025.19;;;29.03;34.28
14902;BME280;7542;49.078;9.194;2023-04-23T02:44:18;98024.41;;;29.03;34.10
14902;BME280;7542;49.078;9.194;2023-04-23T02:45:20;98027.41;;;29.01;34.40
14902;BME280;7542;49.078;9.194;2023-04-23T02:46:22;98032.19;;;29.04;34.08
14902;BME280;7542;49.078;9.194;2023-04-23T02:47:24;98023.91;;;29.01;34.34
14902;BME280;7542;49.078;9.194;2023-04-23T02:48:26;98026.91;;;28.99;33.98
14902;BME280;7542;49.078;9.194;2023-04-23T02:49:30;98030.09;;;29.01;34.33
14902;BME280;7542;49.078;9.194;2023-04-23T02:50:32;98031.22;;;29.00;34.05
14902;BME280;7542;49.078;9.194;2023-04-23T02:51:34;98032.81;;;29.01;34.12
14902;BME280;7542;49.078;9.194;2023-04-23T02:52:36;98032.81;;;29.01;34.50
14902;BME280;7542;49.078;9.194;2023-04-23T02:53:38;98027.41;;;29.01;34.10
14902;BME280;7542;49.078;9.194;2023-04-23T02:54:39;98025.81;;;29.00;34.39
14902;BME280;7542;49.078;9.194;2023-04-23T02:55:42;98026.91;;;28.99;34.41
14902;BME280;7542;49.078;9.194;2023-04-23T02:56:44;98023.69;;;28.97;34.48
14902;BME280;7542;49.078;9.194;2023-04-23T02:57:46;98030.72;;;28.98;34.06
14902;BME280;7542;49.078;9.194;2023-04-23T02:58:48;98025.31;;;28.98;34.26
14902;BME280;7542;49.078;9.194;2023-04-23T02:59:50;98023.69;;;28.97;34.43
14902;BME280;7542;49.078;9.194;2023-04-23T03:00:52;98026.41;;;28.97;34.21
14902;BME280;7542;49.078;9.194;2023-04-23T03:01:54;98024.00;;;28.96;34.10
14902;BME280;7542;49.078;9.194;2023-04-23T03:02:55;98016.72;;;28.96;34.06
14902;BME280;7542;49.078;9.194;2023-04-23T03:03:59;98015.59;;;28.97;34.04
14902;BME280;7542;49.078;9.194;2023-04-23T03:05:01;98019.41;;;28.96;34.22
14902;BME280;7542;49.078;9.194;2023-04-23T03:06:04;98017.81;;;28.95;34.31
14902;BME280;7542;49.078;9.194;2023-04-23T03:07:07;98021.31;;;28.96;34.05
14902;BME280;7542;49.078;9.194;2023-04-23T03:08:09;98024.81;;;28.96;34.15
14902;BME280;7542;49.078;9.194;2023-04-23T03:09:11;98017.00;;;28.95;34.01
14902;BME280;7542;49.078;9.194;2023-04-23T03:10:13;98023.50;;;28.94;34.30
14902;BME280;7542;49.078;9.194;2023-04-23T03:11:15;98029.72;;;28.94;34.13
14902;BME280;7542;49.078;9.194;2023-04-23T03:12:16;98025.41;;;28.93;34.15
14902;BME280;7542;49.078;9.194;2023-04-23T03:13:19;98022.72;;;28.93;34.32
14902;BME280;7542;49.078;9.194;2023-04-23T03:14:20;98023.81;;;28.92;34.29
14902;BME280;7542;49.078;9.194;2023-04-23T03:15:23;98023.03;;;28.92;34.03
14902;BME280;7542;49.078;9.194;2023-04-23T03:16:27;98018.91;;;28.94;34.16
14902;BME280;7542;49.078;9.194;2023-04-23T03:17:29;98015.72;;;28.92;34.34
14902;BME280;7542;49.078;9.194;2023-04-23T03:18:31;98010.31;;;28.92;33.97
14902;BME280;7542;49.078;9.194;2023-04-23T03:19:33;98014.13;;;28.91;34.35
14902;BME280;7542;49.078;9.194;2023-04-23T03:20:35;98011.44;;;28.91;34.34
14902;BME280;7542;49.078;9.194;2023-04-23T03:21:37;98011.75;;;28.90;34.17
14902;BME280;7542;49.078;9.194;2023-04-23T03:22:39;98008.25;;;28.89;33.93
14902;BME280;7542;49.078;9.194;2023-04-23T03:23:41;98007.44;;;28.89;34.30
14902;BME280;7542;49.078;9.194;2023-04-23T03:24:43;98005.81;;;28.87;34.33
14902;BME280;7542;49.078;9.194;2023-04-23T03:25:45;98005.81;;;28.87;33.97
14902;BME280;7542;49.078;9.194;2023-04-23T03:26:47;98011.22;;;28.87;33.97
14902;BME280;7542;49.078;9.194;2023-04-23T03:27:49;98013.91;;;28.87;33.87
14902;BME280;7542;49.078;9.194;2023-04-23T03:28:51;98007.69;;;28.87;34.40
14902;BME280;7542;49.078;9.194;2023-04-23T03:29:52;98010.38;;;28.87;34.32
14902;BME280;7542;49.078;9.194;2023-04-23T03:30:54;98006.09;;;28.86;34.12
14902;BME280;7542;49.078;9.194;2023-04-23T03:31:57;98002.28;;;28.87;34.08
14902;BME280;7542;49.078;9.194;2023-04-23T03:32:59;98001.50;;;28.86;34.28
14902;BME280;7542;49.078;9.194;2023-04-23T03:34:03;98003.41;;;28.86;34.15
14902;BME280;7542;49.078;9.194;2023-04-23T03:35:05;98010.69;;;28.85;34.08
14902;BME280;7542;49.078;9.194;2023-04-23T03:36:07;98006.41;;;28.84;34.24
14902;BME280;7542;49.078;9.194;2023-04-23T03:37:09;98011.00;;;28.84;34.25
14902;BME280;7542;49.078;9.194;2023-04-23T03:38:11;98014.00;;;28.82;34.11
14902;BME280;7542;49.078;9.194;2023-04-23T03:39:14;98020.22;;;28.83;34.11
14902;BME280;7542;49.078;9.194;2023-04-23T03:40:16;98020.22;;;28.83;34.17
14902;BME280;7542;49.078;9.194;2023-04-23T03:41:18;98010.50;;;28.82;34.18
14902;BME280;7542;49.078;9.194;2023-04-23T03:42:20;98009.72;;;28.81;34.01
14902;BME280;7542;49.078;9.194;2023-04-23T03:43:22;98010.50;;;28.82;34.24
14902;BME280;7542;49.078;9.194;2023-04-23T03:44:24;98013.22;;;28.82;34.08
14902;BME280;7542;49.078;9.194;2023-04-23T03:45:26;98021.31;;;28.82;34.07
14902;BME280;7542;49.078;9.194;2023-04-23T03:46:28;98010.03;;;28.80;34.09
14902;BME280;7542;49.078;9.194;2023-04-23T03:47:29;98012.41;;;28.81;33.94
14902;BME280;7542;49.078;9.194;2023-04-23T03:48:32;98016.53;;;28.79;34.14
14902;BME280;7542;49.078;9.194;2023-04-23T03:49:34;98010.34;;;28.78;34.19
14902;BME280;7542;49.078;9.194;2023-04-23T03:50:35;98013.03;;;28.78;34.07
14902;BME280;7542;49.078;9.194;2023-04-23T03:51:41;98011.13;;;28.79;34.29
14902;BME280;7542;49.078;9.194;2023-04-23T03:52:43;98016.53;;;28.79;34.17
14902;BME280;7542;49.078;9.194;2023-04-23T03:53:45;98023.03;;;28.78;34.06
14902;BME280;7542;49.078;9.194;2023-04-23T03:54:47;98016.03;;;28.77;34.02
14902;BME280;7542;49.078;9.194;2023-04-23T03:55:49;98021.44;;;28.77;33.93
14902;BME280;7542;49.078;9.194;2023-04-23T03:56:50;98009.53;;;28.78;33.93
14902;BME280;7542;49.078;9.194;2023-04-23T03:57:52;98016.31;;;28.75;34.10
14902;BME280;7542;49.078;9.194;2023-04-23T03:58:54;98016.31;;;28.75;33.85
14902;BME280;7542;49.078;9.194;2023-04-23T03:59:56;98015.81;;;28.73;33.93
14902;BME280;7542;49.078;9.194;2023-04-23T04:00:58;98015.50;;;28.75;34.19
14902;BME280;7542;49.078;9.194;2023-04-23T04:02:00;98011.22;;;28.74;34.12
14902;BME280;7542;49.078;9.194;2023-04-23T04:03:05;98020.91;;;28.75;34.20
14902;BME280;7542;49.078;9.194;2023-04-23T04:04:07;98021.69;;;28.75;34.07
14902;BME280;7542;49.078;9.194;2023-04-23T04:05:09;98017.41;;;28.74;34.29
14902;BME280;7542;49.078;9.194;2023-04-23T04:06:12;98019.31;;;28.74;33.75
14902;BME280;7542;49.078;9.194;2023-04-23T04:07:14;98020.41;;;28.73;34.17
14902;BME280;7542;49.078;9.194;2023-04-23T04:08:16;98022.00;;;28.74;33.82
14902;BME280;7542;49.078;9.194;2023-04-23T04:09:18;98024.22;;;28.72;33.95
14902;BME280;7542;49.078;9.194;2023-04-23T04:10:20;98022.63;;;28.71;33.87
14902;BME280;7542;49.078;9.194;2023-04-23T04:11:21;98021.81;;;28.70;34.01
14902;BME280;7542;49.078;9.194;2023-04-23T04:12:23;98018.03;;;28.71;34.22
14902;BME280;7542;49.078;9.194;2023-04-23T04:13:25;98021.81;;;28.70;33.97
14902;BME280;7542;49.078;9.194;2023-04-23T04:14:27;98028.31;;;28.69;34.13
14902;BME280;7542;49.078;9.194;2023-04-23T04:15:29;98021.81;;;28.70;34.03
14902;BME280;7542;49.078;9.194;2023-04-23T04:16:31;98018.34;;;28.70;34.13
14902;BME280;7542;49.078;9.194;2023-04-23T04:17:33;98023.22;;;28.68;33.96
14902;BME280;7542;49.078;9.194;2023-04-23T04:18:35;98025.63;;;28.69;34.16
14902;BME280;7542;49.078;9.194;2023-04-23T04:19:37;98023.22;;;28.68;34.07
14902;BME280;7542;49.078;9.194;2023-04-23T04:20:39;98025.63;;;28.69;34.16
14902;BME280;7542;49.078;9.194;2023-04-23T04:21:44;98023.22;;;28.68;34.05
14902;BME280;7542;49.078;9.194;2023-04-23T04:22:46;98024.34;;;28.67;34.29
14902;BME280;7542;49.078;9.194;2023-04-23T04:23:49;98020.03;;;28.66;33.89
14902;BME280;7542;49.078;9.194;2023-04-23T04:24:51;98018.41;;;28.65;33.82
14902;BME280;7542;49.078;9.194;2023-04-23T04:25:53;98017.34;;;28.66;34.09
14902;BME280;7542;49.078;9.194;2023-04-23T04:26:58;98017.34;;;28.66;34.28
14902;BME280;7542;49.078;9.194;2023-04-23T04:28:03;98017.03;;;28.67;33.92
14902;BME280;7542;49.078;9.194;2023-04-23T04:29:05;98019.22;;;28.65;33.90
14902;BME280;7542;49.078;9.194;2023-04-23T04:30:08;98016.25;;;28.67;34.15
14902;BME280;7542;49.078;9.194;2023-04-23T04:31:10;98018.41;;;28.65;33.99
14902;BME280;7542;49.078;9.194;2023-04-23T04:32:12;98033.00;;;28.64;34.17
14902;BME280;7542;49.078;9.194;2023-04-23T04:33:14;98029.22;;;28.65;34.08
14902;BME280;7542;49.078;9.194;2023-04-23T04:34:17;98022.22;;;28.64;34.07
14902;BME280;7542;49.078;9.194;2023-04-23T04:35:19;98032.22;;;28.63;34.10
14902;BME280;7542;49.078;9.194;2023-04-23T04:36:22;98032.22;;;28.63;34.31
14902;BME280;7542;49.078;9.194;2023-04-23T04:37:25;98028.72;;;28.63;34.19
14902;BME280;7542;49.078;9.194;2023-04-23T04:38:28;98037.59;;;28.63;34.08
14902;BME280;7542;49.078;9.194;2023-04-23T04:39:30;98030.63;;;28.62;34.15
14902;BME280;7542;49.078;9.194;2023-04-23T04:40:33;98034.13;;;28.63;34.25
14902;BME280;7542;49.078;9.194;2023-04-23T04:41:38;98038.94;;;28.66;34.16
14902;BME280;7542;49.078;9.194;2023-04-23T04:42:40;98045.69;;;28.63;34.15
14902;BME280;7542;49.078;9.194;2023-04-23T04:43:43;98043.50;;;28.65;34.20
14902;BME280;7542;49.078;9.194;2023-04-23T04:44:45;98040.31;;;28.63;34.17
14902;BME280;7542;49.078;9.194;2023-04-23T04:45:47;98042.69;;;28.65;34.42
14902;BME280;7542;49.078;9.194;2023-04-23T04:46:49;98044.59;;;28.64;34.30
14902;BME280;7542;49.078;9.194;2023-04-23T04:47:52;98044.31;;;28.66;34.50
14902;BME280;7542;49.078;9.194;2023-04-23T04:48:54;98041.63;;;28.66;34.35
14902;BME280;7542;49.078;9.194;2023-04-23T04:49:56;98048.88;;;28.65;34.42
14902;BME280;7542;49.078;9.194;2023-04-23T04:50:58;98041.91;;;28.64;34.57
14902;BME280;7542;49.078;9.194;2023-04-23T04:52:00;98041.63;;;28.66;34.38
14902;BME280;7542;49.078;9.194;2023-04-23T04:53:02;98039.19;;;28.64;34.42
14902;BME280;7542;49.078;9.194;2023-04-23T04:54:05;98034.59;;;28.65;34.54
14902;BME280;7542;49.078;9.194;2023-04-23T04:55:08;98044.31;;;28.66;34.24
14902;BME280;7542;49.078;9.194;2023-04-23T04:56:10;98039.72;;;28.66;34.21
14902;BME280;7542;49.078;9.194;2023-04-23T04:57:12;98050.22;;;28.68;34.31
14902;BME280;7542;49.078;9.194;2023-04-23T04:58:14;98048.63;;;28.67;34.40
14902;BME280;7542;49.078;9.194;2023-04-23T04:59:16;98047.50;;;28.68;34.39
14902;BME280;7542;49.078;9.194;2023-04-23T05:00:22;98042.63;;;28.70;34.43
14902;BME280;7542;49.078;9.194;2023-04-23T05:01:26;98047.22;;;28.69;34.16
14902;BME280;7542;49.078;9.194;2023-04-23T05:02:28;98050.69;;;28.70;34.27
14902;BME280;7542;49.078;9.194;2023-04-23T05:03:30;98046.72;;;28.67;34.32
14902;BME280;7542;49.078;9.194;2023-04-23T05:04:33;98047.50;;;28.68;34.27
14902;BME280;7542;49.078;9.194;2023-04-23T05:05:35;98048.00;;;28.70;34.45
14902;BME280;7542;49.078;9.194;2023-04-23T05:06:36;98051.81;;;28.69;34.51
14902;BME280;7542;49.078;9.194;2023-04-23T05:07:38;98044.81;;;28.68;34.11
14902;BME280;7542;49.078;9.194;2023-04-23T05:08:41;98049.41;;;28.67;34.49
14902;BME280;7542;49.078;9.194;2023-04-23T05:09:48;98051.81;;;28.69;34.51
14902;BME280;7542;49.078;9.194;2023-04-23T05:10:50;98051.00;;;28.68;34.17
14902;BME280;7542;49.078;9.194;2023-04-23T05:11:54;98051.81;;;28.69;34.43
14902;BME280;7542;49.078;9.194;2023-04-23T05:12:57;98052.59;;;28.69;34.34
14902;BME280;7542;49.078;9.194;2023-04-23T05:13:59;98049.09;;;28.69;34.55
14902;BME280;7542;49.078;9.194;2023-04-23T05:15:01;98048.63;;;28.67;34.49
14902;BME280;7542;49.078;9.194;2023-04-23T05:16:03;98056.09;;;28.70;34.25
14902;BME280;7542;49.078;9.194;2023-04-23T05:17:05;98049.09;;;28.69;34.35
14902;BME280;7542;49.078;9.194;2023-04-23T05:18:09;98061.50;;;28.70;34.54
14902;BME280;7542;49.078;9.194;2023-04-23T05:19:11;98055.59;;;28.68;34.32
14902;BME280;7542;49.078;9.194;2023-04-23T05:20:13;98048.63;;;28.67;34.23
14902;BME280;7542;49.078;9.194;2023-04-23T05:21:16;98050.22;;;28.68;34.48
14902;BME280;7542;49.078;9.194;2023-04-23T05:22:17;98047.50;;;28.68;34.27
14902;BME280;7542;49.078;9.194;2023-04-23T05:23:19;98049.41;;;28.67;34.49
14902;BME280;7542;49.078;9.194;2023-04-23T05:24:21;98052.59;;;28.69;34.14
14902;BME280;7542;49.078;9.194;2023-04-23T05:25:23;98050.22;;;28.68;34.07
14902;BME280;7542;49.078;9.194;2023-04-23T05:26:25;98051.00;;;28.68;34.26
14902;BME280;7542;49.078;9.194;2023-04-23T05:27:27;98042.41;;;28.66;34.53
14902;BME280;7542;49.078;9.194;2023-04-23T05:28:30;98038.09;;;28.65;34.38
14902;BME280;7542;49.078;9.194;2023-04-23T05:29:32;98038.63;;;28.67;34.08
14902;BME280;7542;49.078;9.194;2023-04-23T05:30:34;98044.03;;;28.67;34.38
14902;BME280;7542;49.078;9.194;2023-04-23T05:31:36;98040.53;;;28.67;34.08
14902;BME280;7542;49.078;9.194;2023-04-23T05:32:38;98038.94;;;28.66;34.14
14902;BME280;7542;49.078;9.194;2023-04-23T05:33:40;98043.22;;;28.67;34.45
14902;BME280;7542;49.078;9.194;2023-04-23T05:34:51;98049.41;;;28.67;34.01